Meath Environmental Platform

Observations for Trim Market St

Time AQI Temp °C Hum % Pres Pa CO μg/m³ H₂S μg/m³ NO μg/m³ NO₂ μg/m³ O₃ μg/m³ SO₂ μg/m³ PM1 μg/m³ PM2.5 μg/m³ PM10 μg/m³
Thursday 27 August 2026
18:49 2 19.5 80 2,147,483,647 0.14 0 1.68 20.21 39.18 0 11.4 14.34 20.51
18:48 2 19.5 80 2,147,483,647 0.14 0 1.5 18.34 37.36 0 12.11 14.34 19.95
18:47 2 19.5 80 2,147,483,647 0.15 0 1.41 27.59 33.96 0 12.83 14.82 20.53
18:46 2 19.5 80 2,147,483,647 0.14 0 1.29 19.25 35.79 0 12.83 15.76 25.05
18:45 2 19.5 80 2,147,483,647 0.2 0 1.1 24.88 41.16 0 13.54 15.29 25.61
18:44 2 19.6 80 2,147,483,647 0.14 0 0.88 18.15 39.05 0 12.83 14.35 19.97
18:43 2 19.6 80 2,147,483,647 0.15 0 1.1 15.89 39.11 0 12.11 13.88 18.84
18:42 2 19.6 80 2,147,483,647 0.15 0 2.09 20.51 39.2 0 13.54 15.3 22.8
18:41 2 19.6 80 2,147,483,647 0.17 0 2.18 23.57 40.15 0 12.83 15.78 22.82
18:40 2 19.6 80 2,147,483,647 0.19 0 3.85 17.41 47.67 0 13.54 15.78 22.82
18:38 2 19.7 80 2,147,483,647 0.49 0 2.17 24.48 34.66 0 13.54 16.26 23.4
18:37 2 19.6 80 2,147,483,647 0.21 0 2.02 13.17 46.53 0 12.11 13.9 20.57
18:36 2 19.7 80 2,147,483,647 0.2 0 2.08 17.85 42.9 0 13.54 15.31 22.27
18:35 2 19.7 80 2,147,483,647 0.24 0 2.06 9.29 51.51 0 11.4 13.9 19.43
18:34 2 19.7 80 2,147,483,647 0.3 0 2.09 19.76 41.91 0 11.4 14.84 21.13
18:33 2 19.7 80 2,147,483,647 0.37 0 2.14 20.74 49.73 0 10.69 12.49 17.18
18:32 2 19.7 80 2,147,483,647 0.89 0 2.2 35.21 27.15 0 13.54 15.79 22.28
18:31 2 19.7 80 2,147,483,647 0.27 0 2.1 18.38 44.14 0 12.11 14.37 23.97
18:30 2 19.7 80 2,147,483,647 0.39 0 2.05 15.87 48.54 0 12.83 15.31 22.27
18:29 2 19.7 80 2,147,483,647 0.22 0 2.04 20.46 41.48 0 12.83 15.32 23.42